Historyczne dane pomiarowe

Dodano dane terminowe – wersja testowa.

Dane z okresu 1951-2019

Wersja bazy: 1.34 [2019-03-16, lista zmian], aktualizacja planowana na 2019-04-15

Dane meteo z obszaru Polski uzyskane na podstawie danych udostępnionych przez Instytut Meteorologii i Gospodarki Wodnej – Państwowy Instytut Badawczy.

 

Wybierz Datę:    

       

TemperaturaWilgotnośćWiatrCiśnienieOpadyŚniegCzas trwania zjawisk
 Stacja t tx tn tng RH VA  wxwx mslp ppp RRR   cm mm wxwxwxwxwxwxwx
1994-08-14 13.5 18.3 9.4- 79.8- 8.0 0.3---- 0.8------------
1994-08-13 14.9 19.4 10.8- 89.5- 6.7 1.3---- 1.0------------
1994-08-12 15.8 19.8 9.8- 95.8- 5.7 0.3---- 10.4------------
1994-08-11 18.6 26.8 10.0- 78.5- 5.3 1.3---- 23.6------------
1994-08-10 19.1 25.0 14.0- 80.8- 3.7 1.3---- 0.0------------
1994-08-09 18.9 26.8 11.4- 81.3- 6.0 3.3---- 0.7------------
1994-08-08 19.6 27.8 12.7- 84.0- 5.0 0.3---- 0.0------------
1994-08-07 17.9 27.0 10.5- 88.0- 4.7 0.3---- 0.8------------
1994-08-06 17.4 27.8 6.6- 85.3- 1.7 0.7---- 0.0------------
1994-08-05 18.7 27.0 12.0- 81.0- 2.3 0.3---- 0.0------------
1994-08-04 19.4 26.2 13.0- 89.3- 5.3 0.3---- 5.6------------
1994-08-03 18.8 29.2 10.0- 87.0- 6.0 0.3---- 13.7------------
1994-08-02 18.0 30.7 6.9- 70.3- 1.7 0.7---- 0.0------------
1994-08-01 21.0 31.0 9.4- 73.0- 4.0 0.0---- 0.0------------
1994-07-31 19.6 30.5 9.6- 74.8- 0.7 0.7---- 0.0------------
1994-07-30 19.3 30.0 8.1- 74.3- 1.3 0.3---- 0.0------------
1994-07-29 18.2 29.9 6.9- 74.3- 1.3 0.7---- 0.0------------
1994-07-28 17.8 29.1 7.1- 70.5- 2.0 0.7---- 0.0------------
1994-07-27 18.0 28.7 6.9- 72.3- 3.0 0.7---- 0.0------------
1994-07-26 16.8 27.2 6.6- 78.8- 2.3 0.7---- 0.0------------
1994-07-25 17.8 27.1 7.1- 77.3- 3.0 1.0---- 0.0------------
1994-07-24 17.9 27.0 6.9- 77.5- 3.0 0.7---- 0.0------------
1994-07-23 16.1 25.9 5.1- 78.3- 1.7 0.7---- 0.0------------
1994-07-22 15.3 23.8 5.0- 77.5- 1.0 1.0---- 0.0------------
1994-07-21 15.8 24.0 3.3- 76.0- 0.7 1.3---- 0.0------------
1994-07-20 15.1 21.7 6.2- 77.3- 2.0 0.7---- 0.0------------
1994-07-19 17.5 22.6 11.6- 84.3- 3.0 2.3---- 0.0------------
1994-07-18 17.8 23.3 11.8- 89.5- 6.7 0.7---- 3.7------------
1994-07-17 18.7 26.0 9.8- 93.5- 5.0 0.7---- 1.5------------
1994-07-16 19.4 28.3 8.7- 82.8- 6.0 0.3---- 0.0------------
1994-07-15 18.5 25.0 10.0- 85.5- 5.3 0.7---- 0.0------------
1994-07-14 18.0 24.6 9.1- 84.3- 5.7 0.3---- 0.0------------
1994-07-13 17.1 23.1 9.8- 84.0- 6.7 2.0---- 4.6------------
1994-07-12 18.8 22.9 15.0- 78.8- 7.0 1.7---- 0.0------------
1994-07-11 14.9 17.9 11.7- 91.0- 8.0 1.7---- 0.0------------
1994-07-10 13.9 19.9 7.1- 91.8- 8.0 1.7---- 5.5------------
1994-07-09 13.7 19.8 4.7- 80.5- 6.7 1.0---- 0.7------------
1994-07-08 15.6 19.8 12.8- 88.8- 7.7 0.7---- 0.6------------
1994-07-07 15.3 24.8 4.2- 81.8- 5.3 0.7---- 1.7------------
1994-07-06 17.4 21.9 11.7- 69.8- 1.0 1.3---- 0.0------------
1994-07-05 16.5 26.0 4.7- 77.8- 6.0 1.0---- 0.0------------
1994-07-04 14.9 24.8 4.2- 76.3- 0.7 1.0---- 0.0------------
1994-07-03 15.6 24.1 5.4- 75.3- 1.0 1.0---- 0.0------------
1994-07-02 16.1 21.9 7.2- 73.5- 1.3 1.3---- 0.0------------
1994-07-01 18.1 21.0 15.6- 80.3- 4.0 2.0---- 0.0------------
1994-06-30 20.8 27.6 12.5- 87.5- 5.0 0.7---- 0.8------------
1994-06-29 21.4 29.8 11.0- 86.8- 1.0 0.3---- 0.0------------
1994-06-28 20.4 27.6 11.7- 81.5- 0.7 0.3---- 0.0------------
1994-06-27 18.6 26.8 8.1- 83.8- 2.7 0.7---- 0.0------------
1994-06-26 13.9 24.1 1.8- 75.3- 0.7 0.7---- 0.0------------
1994-06-25 12.7 20.9 -0.6- 76.3- 0.7 1.0---- 0.0------------
1994-06-24 11.8 18.6 0.4- 65.8- 0.7 3.3---- 0.0------------
1994-06-23 15.6 19.8 10.0- 74.8- 4.0 5.0---- 0.0------------
1994-06-22 14.2 22.3 1.9- 80.0- 2.3 1.0---- 0.0------------
1994-06-21 14.1 17.8 5.2- 71.3- 1.7 2.0---- 0.0------------
1994-06-20 15.3 20.9 8.2- 81.5- 2.0 1.0---- 0.0------------
1994-06-19 14.5 18.9 8.1- 87.8- 6.0 1.0---- 0.0------------
1994-06-18 8.4 15.0 -1.2- 81.3- 4.7 2.0---- 9.1------------
1994-06-17 9.5 13.1 6.1- 85.3- 7.3 1.0---- 2.1------------
1994-06-16 11.2 17.0 2.9- 88.3- 3.0 1.0---- 10.7------------
233.1 ms

 

Źródłem pochodzenia danych jest Instytut Meteorologii i Gospodarki Wodnej – Państwowy Instytut Badawczy. Dane Instytutu Meteorologii i Gospodarki Wodnej – Państwowego Instytutu Badawczego zostały przetworzone.

Dane źródłowe można odnaleźć na stronie https://dane.imgw.pl